Portada
METAR-TAF:

METAR-TAF

Aeroports :

Ponta Porã, Mato Grosso do Sul, Brasil

latitud: 22-33S, longitud: 055-42W, altitud: 657 m

Observació

L'informe es va fer fa 45 minuts, a les 22:00 UTC
Vent 10 kt del Nord-Est
Temperatura 16°C
Humitat 82%
Pressió 1020 hPa
Visibilitat 10 km o més
Escasses núvols a una alçada de 2000 ft
Cel ennuvolat a una alçada de 10000 ft

METAR: SBPP 192200Z 04010KT 9999 FEW020 BKN100 16/13 Q1020

Hora: 18:45 (22:45 UTC)

Pronòstic

L'informe es va fer fa 7 hores i 15 minuts, a les 15:30 UTC
Pronòstic vàlid del 19 a les 18 UTC al 20 a les 18 UTC
Vent 8 kt del Nord-Est
Visibilitat 10 km o més
sense núvols per sota de 1500 mi sense presència de cumulonimbus.

TAF: SBPP 191530Z 1918/2018 04008KT CAVOK TX20/1918Z TN11/2004Z RMK PE G

Observacions i pronòstics meteorològics de més de 4000 aeroports (METAR i TAF).

Les estacions disponibles són els punts grocs i vermells al mapa.

Posi el ratolí al punt desitjat per veure el nom de l'estació.

Feu clic per veure les observacions i els pronòstics meteorològics.

Per canviar el mapa: feu clic els botons verds amb una creu de color negre per apropar; al botó verd amb un guió per allunyar la imatge; o en les fletxes verdes per a mapes adjacents.


METAR-TAF: